Time;durP1;ratioP1;P1;durP2;ratioP2;P2;SDS_P1;SDS_P2;PMS_P1;PMS_P2;Temp;Humidity;BMP_temperature;BMP_pressure;BME280_temperature;BME280_humidity;BME280_pressure;Samples;Min_cycle;Max_cycle;Signal;HPM_P1;HPM_P2
2022/01/11 00:00:41;;;;;;;4.13;3.73;;;;;;;16.40;45.92;98022.03;6102654;23;20170;-88
2022/01/11 00:03:18;;;;;;;3.93;3.53;;;;;;;13.49;45.59;97565.06;6126368;23;20166;-86
2022/01/11 00:08:33;;;;;;;4.37;3.97;;;;;;;17.23;45.68;98174.09;6102026;23;20190;-78
2022/01/11 00:11:06;;;;;;;3.83;3.53;;;;;;;18.58;45.74;98422.50;6105320;23;20161;-81
2022/01/11 00:13:41;;;;;;;4.07;3.67;;;;;;;18.67;45.84;98420.44;6103454;23;20217;-81
2022/01/11 00:16:10;;;;;;;3.70;3.30;;;;;;;18.36;45.41;98374.59;6103413;23;20166;-81
2022/01/11 00:18:37;;;;;;;4.27;3.67;;;;;;;16.86;45.78;98150.81;6120751;23;20206;-81
2022/01/11 00:21:04;;;;;;;3.70;3.40;;;;;;;19.24;45.62;98528.94;6120715;23;20182;-80
2022/01/11 00:25:58;;;;;;;4.07;3.63;;;;;;;18.29;45.53;98358.91;6121009;23;20359;-80
2022/01/11 00:28:27;;;;;;;3.90;3.50;;;;;;;17.30;45.59;98197.38;6097124;23;20195;-79
2022/01/11 00:30:54;;;;;;;4.10;3.70;;;;;;;16.91;45.38;98166.31;6121255;23;20182;-79
2022/01/11 00:33:39;;;;;;;3.80;3.40;;;;;;;18.58;45.47;98410.66;6096262;23;20210;-80
2022/01/11 00:36:07;;;;;;;3.70;3.40;;;;;;;19.27;45.50;98535.91;6123179;23;20147;-78
2022/01/11 00:38:40;;;;;;;3.93;3.63;;;;;;;19.27;45.49;98535.91;6123603;23;20205;-80
2022/01/11 00:41:09;;;;;;;3.90;3.50;;;;;;;19.27;45.60;98534.22;6121602;23;20239;-80
2022/01/11 00:43:36;;;;;;;4.10;3.40;;;;;;;18.92;45.29;98480.44;6122548;23;20167;-79
2022/01/11 00:46:06;;;;;;;4.57;3.77;;;;;;;18.80;45.52;98456.00;6096250;23;20565;-79
2022/01/11 00:48:35;;;;;;;3.87;3.47;;;;;;;17.73;45.60;98277.78;6073808;23;20198;-80
2022/01/11 00:51:05;;;;;;;4.30;3.73;;;;;;;18.73;45.46;98449.69;6097903;23;20643;-80
2022/01/11 00:53:34;;;;;;;3.90;3.50;;;;;;;19.26;45.67;98546.84;6097423;23;20364;-82
2022/01/11 00:56:00;;;;;;;4.17;3.70;;;;;;;18.87;45.50;98492.06;6123529;23;20614;-80
2022/01/11 00:58:27;;;;;;;3.90;3.60;;;;;;;18.64;45.43;98440.66;6147256;23;20223;-81
2022/01/11 01:00:54;;;;;;;3.70;3.40;;;;;;;19.25;45.75;98548.53;6099392;23;20544;-81
2022/01/11 01:03:21;;;;;;;4.10;3.70;;;;;;;19.25;45.42;98553.63;6098784;23;20257;-80
2022/01/11 01:05:47;;;;;;;3.80;3.40;;;;;;;19.25;45.48;98557.84;6123128;23;20520;-80
2022/01/11 01:08:14;;;;;;;4.13;3.73;;;;;;;18.90;45.80;98502.41;6147905;23;20253;-80
2022/01/11 01:10:46;;;;;;;3.47;3.17;;;;;;;19.24;45.71;98563.72;6147557;23;20178;-81
2022/01/11 01:13:20;;;;;;;3.43;3.13;;;;;;;17.14;45.68;98240.47;6099854;23;20180;-81
2022/01/11 01:15:54;;;;;;;4.70;3.30;;;;;;;12.27;45.57;97348.09;6099579;23;20182;-81
2022/01/11 01:18:27;;;;;;;3.87;3.40;;;;;;;16.35;45.57;98071.66;6099620;23;20298;-81
2022/01/11 01:20:54;;;;;;;3.70;3.20;;;;;;;19.23;45.67;98570.50;6074622;23;20179;-81
2022/01/11 01:23:21;;;;;;;3.30;3.00;;;;;;;18.85;45.77;98514.00;6122536;23;20623;-81
2022/01/11 01:25:48;;;;;;;3.67;3.37;;;;;;;19.22;45.65;98585.72;6123067;23;20638;-82
2022/01/11 01:28:14;;;;;;;3.30;3.00;;;;;;;16.56;45.42;98117.72;6098788;23;20198;-79
2022/01/11 01:30:44;;;;;;;3.53;3.23;;;;;;;17.87;45.69;98378.63;6100152;23;20156;-81
2022/01/11 01:33:11;;;;;;;3.67;3.37;;;;;;;19.21;45.79;98576.28;6123455;23;20598;-80
2022/01/11 01:35:43;;;;;;;3.60;3.30;;;;;;;18.37;45.72;98437.47;6146947;23;20182;-80
2022/01/11 01:38:10;;;;;;;3.37;3.07;;;;;;;17.18;45.75;98288.13;6076577;23;20159;-80
2022/01/11 01:40:44;;;;;;;3.60;3.30;;;;;;;15.85;45.54;98086.41;6100042;23;20640;-80
2022/01/11 01:43:18;;;;;;;4.07;3.50;;;;;;;17.48;45.92;98282.31;6100365;23;20175;-82
2022/01/11 01:45:45;;;;;;;3.23;3.03;;;;;;;11.06;45.42;97223.69;6098482;23;20179;-87
2022/01/11 01:48:12;;;;;;;3.60;3.30;;;;;;;16.68;45.86;98147.22;6122470;23;20163;-86
2022/01/11 01:50:39;;;;;;;3.47;3.17;;;;;;;16.68;45.77;98184.41;6098918;23;20206;-88
2022/01/11 01:53:11;;;;;;;4.03;3.57;;;;;;;18.82;45.82;98518.94;6123240;23;20193;-87
2022/01/11 01:55:45;;;;;;;4.00;3.60;;;;;;;18.90;45.73;98547.38;6122092;23;20184;-87
2022/01/11 01:58:16;;;;;;;3.57;3.27;;;;;;;19.17;45.67;98595.66;6101386;23;20293;-88
2022/01/11 02:00:50;;;;;;;3.83;3.20;;;;;;;14.29;45.69;97743.53;6096975;23;20685;-86
2022/01/11 02:03:17;;;;;;;3.30;3.00;;;;;;;13.19;45.58;97699.41;6122699;23;20166;-85
2022/01/11 02:05:48;;;;;;;3.73;3.33;;;;;;;19.16;45.86;98596.44;6120685;23;20191;-80
2022/01/11 02:08:20;;;;;;;4.27;3.53;;;;;;;12.00;45.69;97430.38;6124491;23;20254;-79
2022/01/11 02:10:49;;;;;;;3.63;3.33;;;;;;;19.18;45.79;98589.75;6123264;23;20201;-79
2022/01/11 02:13:22;;;;;;;4.03;3.30;;;;;;;18.24;46.00;98419.72;6122163;23;20465;-79
2022/01/11 02:15:57;;;;;;;3.40;3.10;;;;;;;13.96;45.64;97678.28;6123005;23;20549;-81
2022/01/11 02:18:27;;;;;;;3.73;3.43;;;;;;;19.20;45.65;98589.84;6145969;23;20637;-78
2022/01/11 02:20:56;;;;;;;3.63;3.33;;;;;;;17.36;45.82;98299.34;6123331;23;20179;-81
2022/01/11 02:23:23;;;;;;;3.80;3.50;;;;;;;11.32;45.76;97346.06;6122750;23;20175;-81
2022/01/11 02:25:50;;;;;;;3.90;3.60;;;;;;;19.19;45.84;98585.53;6123218;23;20166;-80
2022/01/11 02:28:19;;;;;;;3.40;3.10;;;;;;;14.94;45.79;97842.72;6098755;23;20206;-80
2022/01/11 02:30:46;;;;;;;3.53;3.10;;;;;;;16.27;45.57;98073.75;6098739;23;20576;-80
2022/01/11 02:33:32;;;;;;;3.87;3.47;;;;;;;19.01;45.78;98554.81;6098763;23;20230;-80
2022/01/11 02:36:02;;;;;;;3.50;3.20;;;;;;;19.23;45.57;98602.75;6126463;23;20163;-80
2022/01/11 02:38:32;;;;;;;3.43;3.13;;;;;;;14.62;45.74;97787.69;6124771;23;20273;-80
2022/01/11 02:40:59;;;;;;;3.40;3.10;;;;;;;18.03;45.68;98413.44;6122592;23;20230;-80
2022/01/11 02:43:26;;;;;;;3.43;3.13;;;;;;;14.44;45.77;97777.34;6122766;23;20175;-79
2022/01/11 02:46:01;;;;;;;3.30;3.00;;;;;;;13.32;45.48;97553.94;6098746;23;20210;-81
2022/01/11 02:48:31;;;;;;;3.70;3.40;;;;;;;17.97;45.46;98368.16;6099953;23;20195;-80
2022/01/11 02:50:58;;;;;;;3.83;3.43;;;;;;;15.67;45.11;98027.03;6098620;23;20175;-79
2022/01/11 02:53:28;;;;;;;3.70;3.40;;;;;;;17.03;46.00;98205.09;6122429;23;20199;-77
2022/01/11 02:56:00;;;;;;;3.40;3.07;;;;;;;19.23;45.49;98590.91;6100212;23;20168;-81
2022/01/11 02:58:29;;;;;;;3.27;2.97;;;;;;;19.24;45.67;98594.28;6123802;23;20252;-80
2022/01/11 03:01:00;;;;;;;3.40;3.10;;;;;;;9.25;44.83;96953.00;6124475;23;20230;-80
2022/01/11 03:03:29;;;;;;;3.57;3.27;;;;;;;15.39;45.72;97918.91;6122404;23;20166;-78
2022/01/11 03:06:00;;;;;;;3.57;3.27;;;;;;;12.61;45.04;97531.75;6122729;23;20174;-80
2022/01/11 03:08:35;;;;;;;3.27;2.97;;;;;;;17.81;45.66;98380.81;6075501;23;20199;-81
2022/01/11 03:11:06;;;;;;;3.20;2.90;;;;;;;19.21;45.62;98595.03;6146528;23;20194;-80
2022/01/11 03:13:35;;;;;;;3.73;3.20;;;;;;;15.91;45.72;98020.91;6122585;23;20183;-80
2022/01/11 03:16:02;;;;;;;3.40;3.10;;;;;;;19.18;45.44;98599.94;6122187;23;20182;-82
2022/01/11 03:18:31;;;;;;;3.33;3.03;;;;;;;18.71;45.75;98507.28;6122224;23;20199;-80
2022/01/11 03:21:01;;;;;;;3.40;3.10;;;;;;;14.81;45.44;97863.91;6124255;23;20164;-81
2022/01/11 03:23:27;;;;;;;3.13;2.83;;;;;;;17.78;45.58;98352.66;6099588;23;20171;-80
2022/01/11 03:25:54;;;;;;;3.23;3.00;;;;;;;17.08;45.70;98246.88;6122638;23;20832;-79
2022/01/11 03:28:32;;;;;;;3.33;3.03;;;;;;;17.49;45.85;98334.88;6077989;23;20382;-81
2022/01/11 03:31:02;;;;;;;3.10;2.80;;;;;;;13.74;45.54;97723.19;6073171;23;20191;-82
2022/01/11 03:33:30;;;;;;;3.63;3.33;;;;;;;12.46;45.83;97624.00;6121936;23;20241;-82
2022/01/11 03:35:57;;;;;;;3.23;2.93;;;;;;;10.07;45.70;97093.97;6098417;23;20511;-80
2022/01/11 03:38:23;;;;;;;3.60;3.30;;;;;;;15.59;45.77;97991.88;6123185;23;20724;-81
2022/01/11 03:40:50;;;;;;;3.43;3.13;;;;;;;9.62;45.79;96956.28;6075067;23;20229;-80
2022/01/11 03:43:21;;;;;;;3.77;3.47;;;;;;;19.18;45.68;98619.44;6121836;23;20179;-80
2022/01/11 03:45:51;;;;;;;3.53;3.23;;;;;;;19.19;45.74;98623.78;6122326;23;20649;-88
2022/01/11 03:48:18;;;;;;;3.67;3.37;;;;;;;15.30;45.82;97951.22;6146197;23;20269;-89
2022/01/11 03:50:51;;;;;;;3.30;3.00;;;;;;;11.25;45.82;97364.91;6122711;23;20183;-88
2022/01/11 03:53:19;;;;;;;3.30;3.00;;;;;;;8.04;45.77;96692.56;6099893;23;20246;-89
2022/01/11 03:56:11;;;;;;;3.43;3.13;;;;;;;16.85;45.93;98323.34;6147058;23;20626;-87
2022/01/11 03:58:41;;;;;;;3.20;2.90;;;;;;;14.39;45.60;97924.47;6109241;23;20195;-88
2022/01/11 04:01:08;;;;;;;3.50;3.20;;;;;;;16.71;45.55;98248.03;6121944;23;20238;-88
2022/01/11 04:03:37;;;;;;;3.30;3.00;;;;;;;13.19;45.85;97613.63;6097471;23;20674;-89
2022/01/11 04:06:04;;;;;;;3.40;3.10;;;;;;;16.44;45.83;98249.78;6122524;23;20215;-87
2022/01/11 04:08:33;;;;;;;3.10;2.87;;;;;;;14.81;45.90;97919.56;6123474;23;20233;-89
2022/01/11 04:11:00;;;;;;;3.13;2.83;;;;;;;11.62;45.97;97307.81;6123389;23;20175;-88
2022/01/11 04:13:29;;;;;;;3.40;2.93;;;;;;;19.17;45.78;98628.78;6121273;23;20210;-85
2022/01/11 04:15:58;;;;;;;3.40;3.10;;;;;;;8.62;45.71;96784.97;6122687;23;20202;-80
2022/01/11 04:21:04;;;;;;;3.03;2.73;;;;;;;16.20;45.92;98172.19;6187661;23;20169;-83
2022/01/11 04:23:32;;;;;;;3.23;2.93;;;;;;;12.71;45.51;97573.56;6112877;23;20560;-83
2022/01/11 04:26:02;;;;;;;3.40;3.10;;;;;;;18.31;45.66;98471.81;6138895;23;20241;-83
2022/01/11 04:28:32;;;;;;;3.30;3.00;;;;;;;13.15;45.38;97561.25;6186769;23;20675;-82
2022/01/11 04:31:00;;;;;;;3.17;2.87;;;;;;;14.97;45.81;98003.22;6160755;23;20177;-83
2022/01/11 04:33:27;;;;;;;2.90;2.70;;;;;;;17.79;45.73;98412.88;6160486;23;20201;-83
2022/01/11 04:35:54;;;;;;;3.20;2.90;;;;;;;17.96;45.71;98404.56;6161589;23;20228;-81
2022/01/11 04:38:28;;;;;;;3.37;3.07;;;;;;;16.84;45.58;98268.28;6137712;23;20189;-83
2022/01/11 04:40:55;;;;;;;3.40;2.97;;;;;;;14.98;45.60;97875.03;6114631;23;20483;-84
2022/01/11 04:43:22;;;;;;;3.27;2.97;;;;;;;17.93;45.69;98442.53;6160408;23;20169;-82
2022/01/11 04:45:49;;;;;;;2.97;2.73;;;;;;;15.64;45.67;98006.59;6134877;23;20653;-82
2022/01/11 04:48:20;;;;;;;3.43;3.10;;;;;;;16.98;45.62;98235.28;6187406;23;20184;-82
2022/01/11 04:50:47;;;;;;;3.17;2.87;;;;;;;18.94;45.83;98574.75;6160749;23;20182;-81
2022/01/11 04:53:14;;;;;;;2.80;2.60;;;;;;;17.17;45.58;98262.63;6161067;23;20186;-81
2022/01/11 04:55:41;;;;;;;3.40;3.10;;;;;;;18.09;45.25;98445.16;6112300;23;20174;-83
2022/01/11 04:58:10;;;;;;;3.33;3.00;;;;;;;17.78;45.90;98369.56;6136022;23;20232;-83
2022/01/11 05:00:37;;;;;;;3.30;2.90;;;;;;;18.98;45.66;98579.25;6160340;23;20201;-83
2022/01/11 05:03:08;;;;;;;3.10;2.80;;;;;;;18.34;45.84;98479.63;6138272;23;20277;-83
2022/01/11 05:05:35;;;;;;;3.37;2.90;;;;;;;18.47;45.71;98512.69;6136125;23;20178;-82
2022/01/11 05:08:04;;;;;;;3.40;3.10;;;;;;;17.27;45.77;98303.00;6161698;23;20513;-83
2022/01/11 05:10:31;;;;;;;2.90;2.70;;;;;;;18.22;45.83;98469.66;6137491;23;20202;-83
2022/01/11 05:12:59;;;;;;;3.13;2.83;;;;;;;19.16;45.60;98644.84;6137086;23;20588;-84
2022/01/11 05:15:28;;;;;;;2.90;2.60;;;;;;;17.57;45.76;98365.81;6160828;23;20178;-84
2022/01/11 05:17:55;;;;;;;2.90;2.70;;;;;;;17.71;45.75;98451.38;6162317;23;20178;-83
2022/01/11 05:20:22;;;;;;;3.00;2.70;;;;;;;17.08;45.99;98290.03;6156451;23;20206;-82
2022/01/11 05:22:49;;;;;;;3.00;2.80;;;;;;;17.78;46.02;98426.41;6130325;23;20324;-83
2022/01/11 05:25:20;;;;;;;3.50;3.20;;;;;;;17.71;45.84;98396.31;6142969;23;20229;-84
2022/01/11 05:27:51;;;;;;;3.60;3.20;;;;;;;17.96;45.81;98437.63;6126693;23;20162;-83
2022/01/11 05:30:18;;;;;;;3.17;2.87;;;;;;;18.75;45.67;98577.97;6153189;23;20210;-84
2022/01/11 05:32:44;;;;;;;2.83;2.63;;;;;;;18.70;45.82;98581.91;6099756;23;20178;-84
2022/01/11 05:35:12;;;;;;;2.87;2.57;;;;;;;15.13;45.93;97954.44;6120474;23;20798;-81
2022/01/11 05:37:42;;;;;;;3.10;2.80;;;;;;;19.20;45.75;98662.09;6148782;23;20210;-92
2022/01/11 05:40:13;;;;;;;3.33;3.03;;;;;;;14.62;45.84;97858.50;6177746;23;20182;-90
2022/01/11 05:42:40;;;;;;;3.03;2.77;;;;;;;16.73;46.15;98274.38;6158644;23;20172;-90
2022/01/11 05:45:10;;;;;;;3.13;2.90;;;;;;;16.78;46.02;98234.94;6134019;23;20178;-90
2022/01/11 05:47:37;;;;;;;3.47;3.17;;;;;;;11.02;46.35;97237.69;6158698;23;20182;-90
2022/01/11 05:50:05;;;;;;;3.43;2.87;;;;;;;15.96;45.96;98131.00;6134537;23;20242;-90
2022/01/11 05:52:31;;;;;;;2.80;2.60;;;;;;;16.16;46.00;98165.16;6183013;23;20166;-90
2022/01/11 05:54:58;;;;;;;3.00;2.80;;;;;;;19.10;46.00;98657.25;6158226;23;20186;-90
2022/01/11 05:57:26;;;;;;;2.93;2.63;;;;;;;14.85;46.17;97915.53;6183054;23;20172;-90
2022/01/11 05:59:52;;;;;;;3.03;2.73;;;;;;;16.53;45.99;98201.25;6157840;23;20216;-89
2022/01/11 06:02:19;;;;;;;2.77;2.57;;;;;;;14.48;45.88;97859.31;6157340;23;20800;-83
2022/01/11 06:04:46;;;;;;;3.30;3.00;;;;;;;17.93;46.02;98465.44;6156978;23;20205;-82
2022/01/11 06:07:13;;;;;;;3.13;2.60;;;;;;;16.26;45.87;98180.16;6155148;23;20174;-83
2022/01/11 06:09:39;;;;;;;3.23;2.93;;;;;;;17.91;46.11;98464.44;6155167;23;20202;-83
2022/01/11 06:12:07;;;;;;;2.70;2.50;;;;;;;16.58;45.77;98231.19;6155383;23;20174;-84
2022/01/11 06:14:36;;;;;;;2.60;2.40;;;;;;;17.95;45.92;98470.59;6131529;23;20198;-84
2022/01/11 06:17:03;;;;;;;2.70;2.50;;;;;;;15.77;45.80;98090.16;6158031;23;20171;-83
2022/01/11 06:19:31;;;;;;;2.83;2.60;;;;;;;17.41;45.87;98384.31;6131649;23;20703;-82
2022/01/11 06:21:58;;;;;;;2.60;2.40;;;;;;;15.45;45.93;98039.19;6155920;23;20192;-83
2022/01/11 06:24:25;;;;;;;2.50;2.30;;;;;;;18.80;45.99;98630.03;6155495;23;20174;-84
2022/01/11 06:26:52;;;;;;;3.13;2.90;;;;;;;19.18;45.85;98691.69;6155079;23;20174;-83
2022/01/11 06:29:18;;;;;;;2.80;2.60;;;;;;;17.97;45.78;98489.38;6131342;23;20530;-81
2022/01/11 06:31:45;;;;;;;2.77;2.57;;;;;;;19.16;45.73;98706.00;6131785;23;20524;-81
2022/01/11 06:34:12;;;;;;;2.80;2.60;;;;;;;18.57;45.82;98606.59;6131041;23;20194;-82
2022/01/11 06:36:38;;;;;;;2.80;2.53;;;;;;;17.44;45.60;98448.06;6132740;23;20244;-81
2022/01/11 06:39:05;;;;;;;2.70;2.50;;;;;;;18.09;45.82;98526.56;6156142;23;20198;-83
2022/01/11 06:41:32;;;;;;;2.70;2.50;;;;;;;18.74;45.83;98644.94;6154913;23;20577;-81
2022/01/11 06:43:59;;;;;;;2.80;2.60;;;;;;;18.02;45.92;98521.91;6154742;23;20516;-82
2022/01/11 06:46:26;;;;;;;2.80;2.60;;;;;;;16.97;45.90;98364.69;6131321;23;20631;-84
2022/01/11 06:48:52;;;;;;;3.10;2.87;;;;;;;18.02;45.76;98523.56;6155631;23;20249;-83
2022/01/11 06:51:19;;;;;;;2.93;2.70;;;;;;;17.09;46.32;98400.97;6132110;23;20598;-83
2022/01/11 06:53:46;;;;;;;2.70;2.50;;;;;;;14.23;45.70;97877.13;6155510;23;20194;-82
2022/01/11 06:56:17;;;;;;;3.07;2.77;;;;;;;14.08;45.69;97844.91;6132015;23;20179;-83
2022/01/11 06:58:44;;;;;;;2.67;2.47;;;;;;;14.42;45.88;97976.09;6156589;23;20203;-82
2022/01/11 07:01:11;;;;;;;2.67;2.47;;;;;;;18.52;45.83;98620.69;6156647;23;20554;-83
2022/01/11 07:03:38;;;;;;;2.60;2.40;;;;;;;18.86;45.89;98693.19;6155233;23;20178;-82
2022/01/11 07:06:04;;;;;;;2.50;2.30;;;;;;;19.08;45.83;98735.28;6154260;23;20163;-82
2022/01/11 07:08:31;;;;;;;2.33;2.13;;;;;;;18.81;45.76;98684.41;6130228;23;20244;-81
2022/01/11 07:10:58;;;;;;;2.50;2.30;;;;;;;18.77;45.77;98679.94;6130202;23;20249;-83
2022/01/11 07:13:24;;;;;;;2.50;2.30;;;;;;;19.23;46.27;98766.75;6130303;23;20237;-81
2022/01/11 07:15:51;;;;;;;2.67;2.47;;;;;;;18.29;46.00;98610.84;6132161;23;20163;-83
2022/01/11 07:18:18;;;;;;;2.90;2.70;;;;;;;18.33;45.95;98635.66;6128926;23;20231;-83
2022/01/11 07:20:44;;;;;;;2.60;2.40;;;;;;;18.63;45.80;98683.31;6128952;23;20252;-84
2022/01/11 07:23:11;;;;;;;2.60;2.40;;;;;;;17.99;45.87;98569.16;6131767;23;20252;-83
2022/01/11 07:25:38;;;;;;;2.70;2.50;;;;;;;18.05;45.92;98587.34;6131631;23;20253;-84
2022/01/11 07:28:05;;;;;;;2.57;2.37;;;;;;;18.01;45.87;98575.25;6107737;23;20174;-84
2022/01/11 07:30:32;;;;;;;2.70;2.50;;;;;;;18.14;45.76;98642.19;6131012;23;20198;-83
2022/01/11 07:32:58;;;;;;;2.60;2.40;;;;;;;16.88;45.75;98381.91;6130521;23;20682;-84
2022/01/11 07:35:25;;;;;;;2.37;2.17;;;;;;;18.65;46.19;98681.75;6130151;23;20179;-84
2022/01/11 07:37:52;;;;;;;2.70;2.50;;;;;;;18.83;45.82;98728.66;6129675;23;20186;-84
2022/01/11 07:40:19;;;;;;;2.50;2.30;;;;;;;18.01;45.87;98577.78;6154079;23;20579;-81
2022/01/11 07:42:46;;;;;;;2.67;2.43;;;;;;;18.03;45.98;98582.16;6131276;23;20179;-85
2022/01/11 07:45:12;;;;;;;2.50;2.30;;;;;;;17.99;46.25;98577.69;6105606;23;20178;-83
2022/01/11 07:47:39;;;;;;;2.83;2.40;;;;;;;18.73;46.64;98706.88;6130027;23;20182;-85
2022/01/11 07:50:06;;;;;;;2.60;2.40;;;;;;;18.48;45.91;98672.22;6154400;23;20198;-84
2022/01/11 07:52:33;;;;;;;2.87;2.10;;;;;;;19.03;46.23;98763.81;6104323;23;20197;-84
2022/01/11 07:55:00;;;;;;;2.73;2.40;;;;;;;18.46;46.19;98669.59;6129358;23;20250;-84
2022/01/11 07:57:27;;;;;;;2.60;2.40;;;;;;;18.47;46.12;98673.03;6127508;23;20171;-84
2022/01/11 07:59:54;;;;;;;2.40;2.20;;;;;;;18.20;46.03;98632.38;6125556;23;20191;-82
2022/01/11 08:02:23;;;;;;;2.40;2.20;;;;;;;18.78;46.00;98732.59;6100964;23;20594;-84
2022/01/11 08:04:53;;;;;;;2.90;2.30;;;;;;;18.97;45.66;98771.09;6126293;23;20193;-84
2022/01/11 08:07:20;;;;;;;2.53;2.33;;;;;;;18.41;46.16;98670.13;6125744;23;20178;-85
2022/01/11 08:09:47;;;;;;;2.50;2.30;;;;;;;19.17;46.10;98799.53;6125698;23;20195;-84
2022/01/11 08:12:14;;;;;;;2.80;2.60;;;;;;;18.48;46.06;98690.94;6149683;23;20485;-84
2022/01/11 08:14:40;;;;;;;2.60;2.40;;;;;;;18.51;46.01;98697.88;6124970;23;20194;-84
2022/01/11 08:17:07;;;;;;;2.50;2.30;;;;;;;18.21;46.10;98641.78;6126027;23;20159;-82
2022/01/11 08:19:33;;;;;;;2.30;2.10;;;;;;;18.41;45.90;98676.06;6124923;23;20317;-83
2022/01/11 08:22:00;;;;;;;2.80;2.60;;;;;;;18.51;46.06;98697.88;6125869;23;20194;-85
2022/01/11 08:24:27;;;;;;;3.67;3.33;;;;;;;18.79;43.35;98747.09;6126673;23;20498;-83
2022/01/11 08:26:54;;;;;;;3.80;3.50;;;;;;;18.78;43.01;98756.41;6126407;23;20185;-82
2022/01/11 08:29:22;;;;;;;4.43;3.70;;;;;;;18.60;42.51;98722.22;6151743;23;20700;-83
2022/01/11 08:31:49;;;;;;;4.73;4.23;;;;;;;19.00;40.18;98796.75;6126001;23;20201;-84
2022/01/11 08:34:16;;;;;;;4.13;3.73;;;;;;;18.69;40.08;98745.69;6101043;23;20198;-82
2022/01/11 08:36:43;;;;;;;4.40;4.00;;;;;;;18.45;39.24;98710.22;6100764;23;20212;-82
2022/01/11 08:39:10;;;;;;;5.70;4.23;;;;;;;18.48;38.88;98720.59;6122703;23;20233;-82
2022/01/11 08:41:40;;;;;;;5.67;4.20;;;;;;;18.58;39.72;98744.16;6127216;23;20166;-85
2022/01/11 08:44:09;;;;;;;3.87;3.47;;;;;;;18.34;40.02;98704.47;6127094;23;20174;-85
2022/01/11 08:46:37;;;;;;;4.40;4.00;;;;;;;18.43;40.99;98737.25;6103058;23;20185;-83
2022/01/11 08:49:04;;;;;;;5.70;4.10;;;;;;;18.45;40.90;98739.13;6126740;23;20194;-84
2022/01/11 08:51:31;;;;;;;4.37;3.93;;;;;;;18.34;41.90;98722.28;6126979;23;20220;-85
2022/01/11 08:53:58;;;;;;;4.40;3.73;;;;;;;18.35;41.16;98751.16;6101570;23;20232;-81
2022/01/11 08:56:25;;;;;;;5.23;3.70;;;;;;;18.34;41.97;98723.94;6102172;23;20179;-84
2022/01/11 08:58:51;;;;;;;4.00;3.60;;;;;;;18.64;41.56;98781.81;6102048;23;20198;-84
2022/01/11 09:01:19;;;;;;;4.20;3.80;;;;;;;18.16;41.03;98700.81;6102473;23;20242;-83
2022/01/11 09:03:46;;;;;;;5.27;4.23;;;;;;;18.54;40.33;98765.13;6126226;23;20179;-83
2022/01/11 09:06:12;;;;;;;4.37;3.97;;;;;;;18.32;40.30;98741.66;6126647;23;20185;-85
2022/01/11 09:08:39;;;;;;;4.70;4.23;;;;;;;18.23;40.17;98713.09;6101908;23;20178;-84
2022/01/11 09:11:06;;;;;;;4.23;3.73;;;;;;;18.78;40.14;98814.09;6150852;23;20178;-84
2022/01/11 09:13:33;;;;;;;9.40;3.93;;;;;;;18.50;39.92;98767.41;6126624;23;20642;-84
2022/01/11 09:16:00;;;;;;;5.40;3.90;;;;;;;18.39;40.28;98756.56;6130114;23;20186;-83
2022/01/11 09:18:26;;;;;;;4.97;4.00;;;;;;;18.32;40.13;98749.28;6132047;23;20174;-82
2022/01/11 09:20:53;;;;;;;7.00;4.33;;;;;;;18.80;40.41;98827.81;6105142;23;20213;-82
2022/01/11 09:23:20;;;;;;;4.50;3.90;;;;;;;18.61;40.14;98797.81;6128026;23;20162;-84
2022/01/11 09:25:47;;;;;;;4.00;3.60;;;;;;;18.59;40.49;98798.50;6128923;23;20690;-83
2022/01/11 09:28:13;;;;;;;5.03;4.23;;;;;;;18.72;41.03;98817.16;6129945;23;20640;-82
2022/01/11 09:30:40;;;;;;;5.67;3.83;;;;;;;18.34;41.06;98746.84;6159048;23;20217;-81
2022/01/11 09:33:06;;;;;;;4.03;3.63;;;;;;;18.77;41.96;98827.63;6109195;23;20186;-82
2022/01/11 09:35:33;;;;;;;4.37;3.80;;;;;;;18.56;41.90;98788.13;6131969;23;20194;-83
2022/01/11 09:38:00;;;;;;;6.10;3.93;;;;;;;18.96;42.06;98854.31;6131379;23;20166;-83
2022/01/11 09:40:27;;;;;;;3.93;3.40;;;;;;;18.24;42.26;98732.69;6131760;23;20197;-80
2022/01/11 09:42:54;;;;;;;5.10;3.80;;;;;;;18.52;42.49;98773.44;6131794;23;20559;-82
2022/01/11 09:45:20;;;;;;;4.23;3.57;;;;;;;18.28;42.36;98734.63;6106122;23;20666;-81
2022/01/11 09:47:47;;;;;;;3.47;3.10;;;;;;;18.37;42.43;98745.41;6106673;23;20174;-82
2022/01/11 09:50:14;;;;;;;3.37;3.07;;;;;;;18.67;42.71;98817.66;6130803;23;20474;-80
2022/01/11 09:52:41;;;;;;;3.43;3.10;;;;;;;18.57;42.62;98784.78;6131278;23;20175;-82
2022/01/11 09:55:09;;;;;;;3.40;3.10;;;;;;;18.64;42.92;98797.09;6130104;23;20194;-80
2022/01/11 09:57:36;;;;;;;3.43;3.13;;;;;;;18.02;42.92;98696.53;6106161;23;20290;-82
2022/01/11 10:00:04;;;;;;;3.53;2.90;;;;;;;18.76;42.82;98821.66;6129647;23;20210;-83
2022/01/11 10:02:30;;;;;;;3.50;3.20;;;;;;;18.60;42.83;98790.97;6106916;23;20178;-81
2022/01/11 10:04:59;;;;;;;3.33;3.03;;;;;;;18.52;43.12;98791.25;6105688;23;20225;-83
2022/01/11 10:07:30;;;;;;;3.00;2.70;;;;;;;18.64;43.20;98792.00;6105743;23;20193;-84
2022/01/11 10:09:57;;;;;;;3.20;2.90;;;;;;;18.62;43.41;98803.78;6130491;23;20226;-83
2022/01/11 10:12:24;;;;;;;3.00;2.73;;;;;;;19.06;43.37;98876.09;6128754;23;20186;-82
2022/01/11 10:14:52;;;;;;;3.20;2.90;;;;;;;18.72;43.59;98819.72;6105874;23;20198;-82
2022/01/11 10:17:20;;;;;;;4.10;3.00;;;;;;;19.07;43.80;98875.34;6154725;23;20214;-83
2022/01/11 10:19:59;;;;;;;3.20;2.90;;;;;;;16.11;43.56;98351.66;6126602;23;20235;-78
2022/01/11 10:22:26;;;;;;;3.03;2.73;;;;;;;14.48;43.52;98113.03;6104300;23;20637;-87
2022/01/11 10:24:53;;;;;;;3.00;2.63;;;;;;;16.71;43.73;98495.09;6126675;23;20225;-89
2022/01/11 10:27:28;;;;;;;2.90;2.70;;;;;;;18.00;43.70;98683.72;6103262;23;20182;-89
2022/01/11 10:29:59;;;;;;;3.00;2.60;;;;;;;18.30;43.79;98743.25;6094205;23;20202;-85
2022/01/11 10:32:30;;;;;;;3.20;2.90;;;;;;;18.59;43.77;98793.41;6122425;23;20210;-86
2022/01/11 10:35:11;;;;;;;3.10;2.80;;;;;;;18.42;44.17;98768.59;6098522;23;20277;-85
2022/01/11 10:37:44;;;;;;;2.83;2.60;;;;;;;17.92;44.09;98679.81;6122559;23;20250;-89
2022/01/11 10:40:25;;;;;;;2.87;2.43;;;;;;;17.63;44.20;98630.50;6097845;23;20886;-87
2022/01/11 10:42:57;;;;;;;2.63;2.30;;;;;;;18.39;44.16;98756.56;6122901;23;20178;-87
2022/01/11 10:45:26;;;;;;;2.50;2.30;;;;;;;18.53;44.51;98778.63;6099379;23;20238;-87
2022/01/11 10:47:57;;;;;;;2.77;2.57;;;;;;;17.85;44.32;98674.25;6123492;23;20175;-88
2022/01/11 10:50:40;;;;;;;2.87;2.67;;;;;;;18.12;43.89;98731.94;6101052;23;20198;-88
2022/01/11 10:53:10;;;;;;;3.17;2.40;;;;;;;19.09;44.14;98887.38;6124389;23;20164;-88
2022/01/11 10:55:37;;;;;;;2.60;2.30;;;;;;;18.36;44.05;98755.47;6123251;23;20220;-88
2022/01/11 10:58:23;;;;;;;2.60;2.40;;;;;;;19.14;44.29;98890.19;6102342;23;20603;-88
2022/01/11 11:00:52;;;;;;;2.70;2.50;;;;;;;19.08;44.24;98879.63;6146685;23;20241;-87
2022/01/11 11:03:23;;;;;;;2.50;2.27;;;;;;;18.50;44.21;98780.13;6122391;23;20187;-87
2022/01/11 11:06:00;;;;;;;2.70;2.50;;;;;;;18.89;44.27;98834.31;6099443;23;20502;-88
2022/01/11 11:08:30;;;;;;;3.97;2.87;;;;;;;18.15;44.26;98706.69;6146408;23;20162;-88
2022/01/11 11:10:57;;;;;;;2.60;2.40;;;;;;;19.22;44.01;98884.75;6122666;23;20226;-88
2022/01/11 11:13:33;;;;;;;2.90;2.60;;;;;;;19.25;44.22;98901.91;6122383;23;20638;-87
2022/01/11 11:16:08;;;;;;;2.40;2.20;;;;;;;19.01;44.03;98850.34;6121855;23;20748;-87
2022/01/11 11:18:43;;;;;;;2.73;2.53;;;;;;;16.39;43.96;98375.44;6122546;23;20536;-87
2022/01/11 11:21:25;;;;;;;2.60;2.40;;;;;;;19.29;44.06;98892.03;6122681;23;20242;-86
2022/01/11 11:24:03;;;;;;;2.40;2.20;;;;;;;18.02;43.95;98669.44;6122302;23;20163;-86
2022/01/11 11:26:37;;;;;;;2.40;2.20;;;;;;;18.76;43.90;98797.84;6098784;23;20564;-87
2022/01/11 11:29:08;;;;;;;2.47;2.27;;;;;;;18.77;44.00;98825.09;6122631;23;20206;-87
2022/01/11 11:31:54;;;;;;;3.50;3.20;;;;;;;18.75;42.68;98788.44;6122186;23;20178;-87
2022/01/11 11:34:27;;;;;;;3.63;3.27;;;;;;;18.38;42.64;98728.47;6121480;23;20190;-87
2022/01/11 11:36:53;;;;;;;3.80;3.00;;;;;;;19.03;42.78;98838.59;6122140;23;20206;-87
2022/01/11 11:39:20;;;;;;;4.00;3.27;;;;;;;17.99;43.04;98651.44;6121618;23;20191;-87
2022/01/11 11:41:52;;;;;;;3.40;3.10;;;;;;;18.81;43.05;98792.25;6145736;23;20228;-88
2022/01/11 11:44:20;;;;;;;3.80;3.10;;;;;;;16.59;43.18;98433.41;6121927;23;20221;-88
2022/01/11 11:46:54;;;;;;;3.47;3.17;;;;;;;19.39;43.04;98893.47;6098061;23;20206;-88
2022/01/11 11:49:51;;;;;;;3.27;2.97;;;;;;;18.45;42.97;98730.59;6122937;23;20170;-88